Accueil
METAR-TAF:

METAR-TAF

Aéroports :

Aéroport exécutif Gatineau-Ottawa

Gatineau, Québec, Canada

latitude: 45-31N, longitude: 075-34W, altitude: 64 m

Observation

Le bulletin a été fait il y a 3 heures et 27 minutes, à 02:00 UTC
Vent 4 kt de ouest
Température -6°C
Humidité 100%
Pression 1021 hPa
Visibilité: 24.1 km
Ciel clair

METAR: CYND 210200Z 27004KT 15SM SKC M06/M06 A3015 RMK LAST STFD OBS/NEXT 211200 UTC SLP216

Heure: 00:27 (05:27 UTC)

Prévision

Le bulletin a été fait il y a 5 heures et 49 minutes, à 23:38 UTC
Prévision valable du 21 à 00 UTC au 21 à 02 UTC
Vent 3 kt de direction variable
Visibilité: 10 km
Nuages épars à une hauteur de 6000 ft
Nuages épars à une hauteur de 10000 ft

TAF: CYND 202338Z 2100/2102 VRB03KT P6SM SCT060 SCT100 RMK NXT FCST WILL BE ISSUED AT 211345Z

Observations et prévisions météorologiques de plus de 4000 aéroports (messages METAR et TAF).

Les stations disponibles sont représentées par des disques jaunes et rouges sur la carte.

Passer la souris dessus pour voir le nom de la station.

Cliquer dessus pour voir les observations et prévisions météorologiques.

Pour changer de carte: cliquez sur les boutons verts avec une croix noire pour zoomer, sur le bouton vert avec un tiret pour effectuer un zoom arrière, ou sur les flèches vertes pour les cartes adjacentes.


METAR-TAF: